createdAt,value
2022-09-24T00:00:10.212Z,4.53
2022-09-24T00:02:39.026Z,4.70
2022-09-24T00:05:07.054Z,4.60
2022-09-24T00:07:34.450Z,4.80
2022-09-24T00:10:02.600Z,4.70
2022-09-24T00:12:30.000Z,4.47
2022-09-24T00:14:57.426Z,4.80
2022-09-24T00:17:24.875Z,4.50
2022-09-24T00:19:53.572Z,4.97
2022-09-24T00:22:20.937Z,4.80
2022-09-24T00:25:14.222Z,4.70
2022-09-24T00:27:41.603Z,5.33
2022-09-24T00:30:09.382Z,6.07
2022-09-24T00:32:36.774Z,4.87
2022-09-24T00:35:06.719Z,5.60
2022-09-24T00:37:34.090Z,4.90
2022-09-24T00:40:01.615Z,5.50
2022-09-24T00:42:29.473Z,5.20
2022-09-24T00:44:57.712Z,5.10
2022-09-24T00:47:30.626Z,5.20
2022-09-24T00:50:02.027Z,4.33
2022-09-24T00:52:30.831Z,4.87
2022-09-24T00:54:58.318Z,4.70
2022-09-24T00:57:26.029Z,4.90
2022-09-24T00:59:54.822Z,4.90
2022-09-24T01:02:22.572Z,4.77
2022-09-24T01:04:53.230Z,4.60
2022-09-24T01:07:23.643Z,4.83
2022-09-24T01:09:52.379Z,4.57
2022-09-24T01:12:25.265Z,4.87
2022-09-24T01:15:03.142Z,4.60
2022-09-24T01:17:33.836Z,5.13
2022-09-24T01:20:18.168Z,4.10
2022-09-24T01:22:57.392Z,4.70
2022-09-24T01:25:29.707Z,4.87
2022-09-24T01:28:02.521Z,4.63
2022-09-24T01:30:35.031Z,4.73
2022-09-24T01:33:03.623Z,4.57
2022-09-24T01:35:33.133Z,5.00
2022-09-24T01:38:03.064Z,5.20
2022-09-24T01:40:31.375Z,4.70
2022-09-24T01:42:59.979Z,4.77
2022-09-24T01:45:31.870Z,5.40
2022-09-24T01:48:01.577Z,5.50
2022-09-24T01:50:30.477Z,4.70
2022-09-24T01:53:00.528Z,5.43
2022-09-24T01:55:29.506Z,5.23
2022-09-24T01:58:01.131Z,5.10
2022-09-24T02:00:28.696Z,5.43
2022-09-24T02:02:58.507Z,5.13
2022-09-24T02:05:32.619Z,4.87
2022-09-24T02:08:03.584Z,4.83
2022-09-24T02:10:33.508Z,5.07
2022-09-24T02:13:04.584Z,5.10
2022-09-24T02:15:33.715Z,4.80
2022-09-24T02:18:03.916Z,5.40
2022-09-24T02:20:33.044Z,4.90
2022-09-24T02:23:00.562Z,4.97
2022-09-24T02:25:31.825Z,4.50
2022-09-24T02:27:59.509Z,5.10
2022-09-24T02:30:27.019Z,5.20
2022-09-24T02:32:55.087Z,4.60
2022-09-24T02:35:22.242Z,5.10
2022-09-24T02:37:51.012Z,5.37
2022-09-24T02:40:18.633Z,5.17
2022-09-24T02:42:46.066Z,5.07
2022-09-24T02:45:14.509Z,5.80
2022-09-24T02:47:41.897Z,5.30
2022-09-24T02:50:09.696Z,4.70
2022-09-24T02:52:37.076Z,5.10
2022-09-24T02:55:06.307Z,5.20
2022-09-24T02:57:33.680Z,4.80
2022-09-24T03:00:01.108Z,5.30
2022-09-24T03:02:28.552Z,5.20
2022-09-24T03:04:56.484Z,5.07
2022-09-24T03:07:23.850Z,4.60
2022-09-24T03:09:51.219Z,4.80
2022-09-24T03:12:19.950Z,5.00
2022-09-24T03:14:47.319Z,5.40
2022-09-24T03:17:14.696Z,5.17
2022-09-24T03:19:42.210Z,5.33
2022-09-24T03:22:09.625Z,5.60
2022-09-24T03:24:37.000Z,5.20
2022-09-24T03:27:04.472Z,5.53
2022-09-24T03:29:50.721Z,5.03
2022-09-24T03:32:18.096Z,5.53
2022-09-24T03:34:45.528Z,5.80
2022-09-24T03:37:13.449Z,5.60
2022-09-24T03:39:40.880Z,5.33
2022-09-24T03:42:08.398Z,5.30
2022-09-24T03:44:37.115Z,5.57
2022-09-24T03:47:04.526Z,5.43
2022-09-24T03:49:31.913Z,6.00
2022-09-24T03:51:59.306Z,6.30
2022-09-24T03:54:26.683Z,5.10
2022-09-24T03:56:54.029Z,5.20
2022-09-24T03:59:21.423Z,5.37
2022-09-24T04:01:50.419Z,5.27
2022-09-24T04:04:17.911Z,5.30
2022-09-24T04:06:45.304Z,5.33
2022-09-24T04:09:12.762Z,5.37
2022-09-24T04:11:40.149Z,5.87
2022-09-24T04:14:07.713Z,5.37
2022-09-24T04:16:36.319Z,6.23
2022-09-24T04:19:05.408Z,5.57
2022-09-24T04:21:32.791Z,7.87
2022-09-24T04:24:00.283Z,13.17
2022-09-24T04:26:27.693Z,7.77
2022-09-24T04:28:55.091Z,5.53
2022-09-24T04:31:23.518Z,5.20
2022-09-24T04:33:51.284Z,4.70
2022-09-24T04:36:20.239Z,5.33
2022-09-24T04:38:47.949Z,5.67
2022-09-24T04:41:15.978Z,5.83
2022-09-24T04:43:43.370Z,5.97
2022-09-24T04:46:10.859Z,6.63
2022-09-24T04:48:38.413Z,6.40
2022-09-24T04:51:06.846Z,6.77
2022-09-24T04:53:37.097Z,6.83
2022-09-24T04:56:04.875Z,6.33
2022-09-24T04:58:32.430Z,6.93
2022-09-24T05:01:02.860Z,7.33
2022-09-24T05:03:30.282Z,6.70
2022-09-24T05:05:57.665Z,6.37
2022-09-24T05:08:25.276Z,7.90
2022-09-24T05:10:54.373Z,7.27
2022-09-24T05:13:22.340Z,7.00
2022-09-24T05:15:50.506Z,6.63
2022-09-24T05:18:17.900Z,6.40
2022-09-24T05:20:45.294Z,6.30
2022-09-24T05:23:13.114Z,6.63
2022-09-24T05:25:54.424Z,14.77
2022-09-24T05:28:23.168Z,11.37
2022-09-24T05:30:50.809Z,11.00
2022-09-24T05:33:18.349Z,8.97
2022-09-24T05:35:45.813Z,6.60
2022-09-24T05:38:13.206Z,6.10
2022-09-24T05:40:50.457Z,6.07
2022-09-24T05:43:19.227Z,6.17
2022-09-24T05:45:50.076Z,6.97
2022-09-24T05:48:17.469Z,6.90
2022-09-24T05:50:44.986Z,7.63
2022-09-24T05:53:12.906Z,7.17
2022-09-24T05:55:40.326Z,7.33
2022-09-24T05:58:08.373Z,6.87
2022-09-24T06:00:36.409Z,6.90
2022-09-24T06:03:07.684Z,7.20
2022-09-24T06:05:35.632Z,6.87
2022-09-24T06:08:03.221Z,7.00
2022-09-24T06:10:30.674Z,6.70
2022-09-24T06:12:58.447Z,6.50
2022-09-24T06:15:26.492Z,7.60
2022-09-24T06:17:54.255Z,7.20
2022-09-24T06:20:23.079Z,7.07
2022-09-24T06:22:50.843Z,9.03
2022-09-24T06:25:18.292Z,8.10
2022-09-24T06:27:45.687Z,9.57
2022-09-24T06:30:13.573Z,7.90
2022-09-24T06:32:40.992Z,7.97
2022-09-24T06:35:08.803Z,7.93
2022-09-24T06:37:37.520Z,7.60
2022-09-24T06:40:05.268Z,7.30
2022-09-24T06:42:32.652Z,7.13
2022-09-24T06:45:00.000Z,7.03
2022-09-24T06:47:27.388Z,6.90
2022-09-24T06:49:54.748Z,6.50
2022-09-24T06:52:23.406Z,6.83
2022-09-24T06:54:55.794Z,6.60
2022-09-24T06:57:28.068Z,7.03
2022-09-24T06:59:56.197Z,6.67
2022-09-24T07:02:23.754Z,6.47
2022-09-24T07:04:51.178Z,6.40
2022-09-24T07:07:30.560Z,7.03
2022-09-24T07:09:59.512Z,6.70
2022-09-24T07:12:27.075Z,6.30
2022-09-24T07:14:54.451Z,6.80
2022-09-24T07:17:21.986Z,6.37
2022-09-24T07:19:49.422Z,7.67
2022-09-24T07:22:16.803Z,6.87
2022-09-24T07:24:44.296Z,7.00
2022-09-24T07:27:13.115Z,7.03
2022-09-24T07:29:40.536Z,7.17
2022-09-24T07:32:07.925Z,7.23
2022-09-24T07:34:35.371Z,11.20
2022-09-24T07:37:02.739Z,7.37
2022-09-24T07:39:30.351Z,7.30
2022-09-24T07:41:57.795Z,7.50
2022-09-24T07:44:26.504Z,7.30
2022-09-24T07:46:53.940Z,7.40
2022-09-24T07:49:21.399Z,7.60
2022-09-24T07:51:49.432Z,7.30
2022-09-24T07:54:17.476Z,6.43
2022-09-24T07:56:44.967Z,6.70
2022-09-24T07:59:12.471Z,7.00
2022-09-24T08:01:41.304Z,7.60
2022-09-24T08:04:08.860Z,6.57
2022-09-24T08:06:39.556Z,6.77
2022-09-24T08:09:08.852Z,6.67
2022-09-24T08:11:36.271Z,6.67
2022-09-24T08:14:04.036Z,6.50
2022-09-24T08:16:31.457Z,7.20
2022-09-24T08:19:00.968Z,6.80
2022-09-24T08:21:29.057Z,8.30
2022-09-24T08:23:56.998Z,8.20
2022-09-24T08:26:24.344Z,6.90
2022-09-24T08:28:51.811Z,7.20
2022-09-24T08:31:19.836Z,7.53
2022-09-24T08:33:50.683Z,6.90
2022-09-24T08:36:19.469Z,8.60
2022-09-24T08:38:46.945Z,7.73
2022-09-24T08:41:23.139Z,7.80
2022-09-24T08:43:54.792Z,7.20
2022-09-24T08:46:42.736Z,7.20
2022-09-24T08:49:14.348Z,7.80
2022-09-24T08:51:47.247Z,8.03
2022-09-24T08:54:15.767Z,10.30
2022-09-24T08:56:46.393Z,8.20
2022-09-24T08:59:18.531Z,8.63
2022-09-24T09:01:49.577Z,7.17
2022-09-24T09:04:24.793Z,8.93
2022-09-24T09:07:05.019Z,8.70
2022-09-24T09:09:39.543Z,9.10
2022-09-24T09:12:11.485Z,9.27
2022-09-24T09:14:42.420Z,8.73
2022-09-24T09:17:13.887Z,10.20
2022-09-24T09:19:41.612Z,10.17
2022-09-24T09:22:13.997Z,10.87
2022-09-24T09:24:45.350Z,10.40
2022-09-24T09:27:14.678Z,10.60
2022-09-24T09:29:42.439Z,10.13
2022-09-24T09:32:16.019Z,10.00
2022-09-24T09:34:52.279Z,10.30
2022-09-24T09:37:26.286Z,9.73
2022-09-24T09:39:56.087Z,11.27
2022-09-24T09:42:32.026Z,11.40
2022-09-24T09:45:01.297Z,10.57
2022-09-24T09:47:36.028Z,10.83
2022-09-24T09:50:05.816Z,10.97
2022-09-24T09:52:38.668Z,9.70
2022-09-24T09:55:06.521Z,10.67
2022-09-24T09:57:35.878Z,10.40
2022-09-24T10:00:03.545Z,10.67
2022-09-24T10:02:33.545Z,10.87
2022-09-24T10:05:02.443Z,10.97
2022-09-24T10:07:31.589Z,91.53
2022-09-24T10:10:02.395Z,39.97
2022-09-24T10:12:30.293Z,31.60
2022-09-24T10:14:58.983Z,16.80
2022-09-24T10:17:28.626Z,20.33
2022-09-24T10:19:56.945Z,14.77
2022-09-24T10:22:25.607Z,10.90
2022-09-24T10:24:54.136Z,11.20
2022-09-24T10:27:29.042Z,10.20
2022-09-24T10:30:14.411Z,13.47
2022-09-24T10:32:42.053Z,30.27
2022-09-24T10:35:23.389Z,11.53
2022-09-24T10:37:54.725Z,13.70
2022-09-24T10:40:24.255Z,10.80
2022-09-24T10:42:57.935Z,10.93
2022-09-24T10:45:29.112Z,15.73
2022-09-24T10:48:00.522Z,30.87
2022-09-24T10:50:30.908Z,14.47
2022-09-24T10:53:00.528Z,12.13
2022-09-24T10:55:52.407Z,11.30
2022-09-24T10:58:31.665Z,11.53
2022-09-24T11:01:05.170Z,10.87
2022-09-24T11:03:45.765Z,10.10
2022-09-24T11:06:18.747Z,10.27
2022-09-24T11:09:00.597Z,10.73
2022-09-24T11:11:35.715Z,11.20
2022-09-24T11:14:09.816Z,11.13
2022-09-24T11:16:44.835Z,10.07
2022-09-24T11:19:21.056Z,11.27
2022-09-24T11:22:00.885Z,10.90
2022-09-24T11:24:39.320Z,10.97
2022-09-24T11:27:15.109Z,11.47
2022-09-24T11:29:52.515Z,9.30
2022-09-24T11:32:25.149Z,11.57
2022-09-24T11:34:59.747Z,11.17
2022-09-24T11:37:36.079Z,10.70
2022-09-24T11:40:09.116Z,10.83
2022-09-24T11:42:42.097Z,11.10
2022-09-24T11:45:19.670Z,11.10
2022-09-24T11:48:02.095Z,10.50
2022-09-24T11:50:35.773Z,11.57
2022-09-24T11:53:07.399Z,10.40
2022-09-24T11:55:37.698Z,9.13
2022-09-24T11:58:08.013Z,10.00
2022-09-24T12:00:40.542Z,8.90
2022-09-24T12:03:10.701Z,8.63
2022-09-24T12:05:39.390Z,8.87
2022-09-24T12:08:12.058Z,8.90
2022-09-24T12:10:42.338Z,8.70
2022-09-24T12:13:13.925Z,8.70
2022-09-24T12:15:48.269Z,8.43
2022-09-24T12:18:18.165Z,8.23
2022-09-24T12:20:48.508Z,8.50
2022-09-24T12:23:17.707Z,8.70
2022-09-24T12:25:46.501Z,7.83
2022-09-24T12:28:15.046Z,9.23
2022-09-24T12:31:14.927Z,9.37
2022-09-24T12:33:46.576Z,11.37
2022-09-24T12:36:18.084Z,11.00
2022-09-24T12:38:46.583Z,9.20
2022-09-24T12:41:22.988Z,9.37
2022-09-24T12:43:52.247Z,8.67
2022-09-24T12:46:21.307Z,9.47
2022-09-24T12:48:50.638Z,9.83
2022-09-24T12:51:22.238Z,9.70
2022-09-24T12:53:57.113Z,12.40
2022-09-24T12:56:25.303Z,12.70
2022-09-24T12:58:53.287Z,12.30
2022-09-24T13:01:27.593Z,10.17
2022-09-24T13:04:04.168Z,10.50
2022-09-24T13:06:33.340Z,12.00
2022-09-24T13:09:00.798Z,10.70
2022-09-24T13:11:32.713Z,10.33
2022-09-24T13:14:19.091Z,11.50
2022-09-24T13:16:48.920Z,11.17
2022-09-24T13:19:25.158Z,11.03
2022-09-24T13:21:56.923Z,11.63
2022-09-24T13:24:27.187Z,11.33
2022-09-24T13:26:54.596Z,12.40
2022-09-24T13:29:24.493Z,12.80
2022-09-24T13:31:55.780Z,12.43
2022-09-24T13:34:27.100Z,11.50
2022-09-24T13:36:58.428Z,11.00
2022-09-24T13:39:28.772Z,12.00
2022-09-24T13:42:00.262Z,11.93
2022-09-24T13:44:30.526Z,10.60
2022-09-24T13:46:59.798Z,10.53
2022-09-24T13:49:29.109Z,11.13
2022-09-24T13:52:00.417Z,11.30
2022-09-24T13:54:34.850Z,10.37
2022-09-24T13:57:07.865Z,11.73
2022-09-24T13:59:35.258Z,11.93
2022-09-24T14:02:02.783Z,12.73
2022-09-24T14:04:31.743Z,11.73
2022-09-24T14:07:02.583Z,12.13
2022-09-24T14:09:31.173Z,11.53
2022-09-24T14:12:01.853Z,12.70
2022-09-24T14:14:30.360Z,13.30
2022-09-24T14:17:07.024Z,12.97
2022-09-24T14:19:36.150Z,11.73
2022-09-24T14:22:03.886Z,11.37
2022-09-24T14:24:33.417Z,11.33
2022-09-24T14:27:02.274Z,10.23
2022-09-24T14:29:30.860Z,10.00
2022-09-24T14:31:59.943Z,10.00
2022-09-24T14:34:28.833Z,9.77
2022-09-24T14:36:59.687Z,10.50
2022-09-24T14:39:39.205Z,10.87
2022-09-24T14:42:10.720Z,11.67
2022-09-24T14:44:39.808Z,12.30
2022-09-24T14:47:24.032Z,10.90
2022-09-24T14:49:51.544Z,10.13
2022-09-24T14:52:27.439Z,9.87
2022-09-24T14:55:02.024Z,10.10
2022-09-24T14:57:36.441Z,10.57
2022-09-24T15:00:04.503Z,9.30
2022-09-24T15:02:35.042Z,10.40
2022-09-24T15:05:06.540Z,10.00
2022-09-24T15:07:36.298Z,9.40
2022-09-24T15:10:06.026Z,9.50
2022-09-24T15:12:34.635Z,9.93
2022-09-24T15:15:03.091Z,9.67
2022-09-24T15:17:31.194Z,9.83
2022-09-24T15:19:58.671Z,9.90
2022-09-24T15:22:26.800Z,9.70
2022-09-24T15:25:01.042Z,9.60
2022-09-24T15:27:30.245Z,9.70
2022-09-24T15:29:59.788Z,9.67
2022-09-24T15:32:28.031Z,10.70
2022-09-24T15:34:56.583Z,10.07
2022-09-24T15:37:25.245Z,10.20
2022-09-24T15:39:53.034Z,10.73
2022-09-24T15:42:22.666Z,11.90
2022-09-24T15:44:50.741Z,10.43
2022-09-24T15:47:19.025Z,10.50
2022-09-24T15:49:46.680Z,10.30
2022-09-24T15:52:15.984Z,10.60
2022-09-24T15:54:43.382Z,10.30
2022-09-24T15:57:12.119Z,10.60
2022-09-24T15:59:40.856Z,10.07
2022-09-24T16:02:16.591Z,10.90
2022-09-24T16:04:44.083Z,9.97
2022-09-24T16:07:11.525Z,10.20
2022-09-24T16:09:38.900Z,10.57
2022-09-24T16:12:06.327Z,11.30
2022-09-24T16:14:33.735Z,10.60
2022-09-24T16:17:02.488Z,11.50
2022-09-24T16:19:30.387Z,15.60
2022-09-24T16:21:59.419Z,14.40
2022-09-24T16:24:27.124Z,13.30
2022-09-24T16:26:55.431Z,12.17
2022-09-24T16:29:22.907Z,12.20
2022-09-24T16:31:50.469Z,11.70
2022-09-24T16:34:19.226Z,11.20
2022-09-24T16:36:46.656Z,10.83
2022-09-24T16:39:15.675Z,10.53
2022-09-24T16:41:44.312Z,11.50
2022-09-24T16:44:13.233Z,10.03
2022-09-24T16:46:40.635Z,10.23
2022-09-24T16:49:08.165Z,9.60
2022-09-24T16:51:37.906Z,10.07
2022-09-24T16:54:05.572Z,11.10
2022-09-24T16:56:33.058Z,9.90
2022-09-24T16:59:00.426Z,10.03
2022-09-24T17:01:27.898Z,9.43
2022-09-24T17:03:56.298Z,10.60
2022-09-24T17:06:24.680Z,9.80
2022-09-24T17:09:11.482Z,10.20
2022-09-24T17:11:40.434Z,9.50
2022-09-24T17:14:08.176Z,10.37
2022-09-24T17:16:35.808Z,10.60
2022-09-24T17:19:03.233Z,10.10
2022-09-24T17:21:30.688Z,10.30
2022-09-24T17:23:59.428Z,10.30
2022-09-24T17:26:27.044Z,10.63
2022-09-24T17:28:54.988Z,9.57
2022-09-24T17:31:23.540Z,10.57
2022-09-24T17:33:56.094Z,10.30
2022-09-24T17:36:24.039Z,11.23
2022-09-24T17:38:51.868Z,10.50
2022-09-24T17:41:22.914Z,10.60
2022-09-24T17:43:51.318Z,11.10
2022-09-24T17:46:21.689Z,11.83
2022-09-24T17:48:51.147Z,11.13
2022-09-24T17:51:20.131Z,11.40
2022-09-24T17:53:47.848Z,11.27
2022-09-24T17:56:15.673Z,11.23
2022-09-24T17:58:45.096Z,11.30
2022-09-24T18:01:13.827Z,11.33
2022-09-24T18:03:41.555Z,11.20
2022-09-24T18:06:09.732Z,10.90
2022-09-24T18:08:37.210Z,11.17
2022-09-24T18:11:05.004Z,11.47
2022-09-24T18:13:34.881Z,10.20
2022-09-24T18:16:07.865Z,11.10
2022-09-24T18:18:35.529Z,11.50
2022-09-24T18:21:03.306Z,11.30
2022-09-24T18:23:31.287Z,11.90
2022-09-24T18:26:10.428Z,11.60
2022-09-24T18:28:39.353Z,12.90
2022-09-24T18:31:08.895Z,12.80
2022-09-24T18:33:37.501Z,12.03
2022-09-24T18:36:05.980Z,10.50
2022-09-24T18:38:33.470Z,11.50
2022-09-24T18:41:01.468Z,11.67
2022-09-24T18:43:31.182Z,14.53
2022-09-24T18:46:02.890Z,14.77
2022-09-24T18:48:31.790Z,14.60
2022-09-24T18:50:59.280Z,15.57
2022-09-24T18:53:26.637Z,16.30
2022-09-24T18:55:54.462Z,14.83
2022-09-24T18:58:21.891Z,13.93
2022-09-24T19:00:54.062Z,13.93
2022-09-24T19:03:22.264Z,16.07
2022-09-24T19:05:51.523Z,14.70
2022-09-24T19:08:20.123Z,14.67
2022-09-24T19:10:47.730Z,13.70
2022-09-24T19:13:15.344Z,13.27
2022-09-24T19:15:43.305Z,12.80
2022-09-24T19:18:11.757Z,12.80
2022-09-24T19:20:39.487Z,12.77
2022-09-24T19:23:08.464Z,12.50
2022-09-24T19:25:36.584Z,11.50
2022-09-24T19:28:04.652Z,12.30
2022-09-24T19:30:32.523Z,12.17
2022-09-24T19:32:59.933Z,12.47
2022-09-24T19:35:27.627Z,13.23
2022-09-24T19:37:55.081Z,12.43
2022-09-24T19:40:24.010Z,13.33
2022-09-24T19:42:51.466Z,12.93
2022-09-24T19:45:18.881Z,13.10
2022-09-24T19:47:46.234Z,13.67
2022-09-24T19:50:17.326Z,13.57
2022-09-24T19:52:45.402Z,13.97
2022-09-24T19:55:12.776Z,15.50
2022-09-24T19:57:41.525Z,16.30
2022-09-24T20:00:09.768Z,14.97
2022-09-24T20:02:37.540Z,14.77
2022-09-24T20:05:05.186Z,15.13
2022-09-24T20:07:33.458Z,15.03
2022-09-24T20:10:00.859Z,17.40
2022-09-24T20:12:29.425Z,19.10
2022-09-24T20:14:58.166Z,22.17
2022-09-24T20:17:25.535Z,19.40
2022-09-24T20:19:52.975Z,19.37
2022-09-24T20:22:20.398Z,18.30
2022-09-24T20:24:48.837Z,17.83
2022-09-24T20:27:33.730Z,15.93
2022-09-24T20:30:02.481Z,16.43
2022-09-24T20:32:29.874Z,17.87
2022-09-24T20:34:58.988Z,17.70
2022-09-24T20:37:26.391Z,17.60
2022-09-24T20:39:53.767Z,17.03
2022-09-24T20:42:21.169Z,16.53
2022-09-24T20:44:49.012Z,18.07
2022-09-24T20:47:17.762Z,16.80
2022-09-24T20:49:45.181Z,17.37
2022-09-24T20:52:12.599Z,18.60
2022-09-24T20:54:40.017Z,19.13
2022-09-24T20:57:07.679Z,16.97
2022-09-24T20:59:36.263Z,19.70
2022-09-24T21:02:03.745Z,17.60
2022-09-24T21:04:34.598Z,16.57
2022-09-24T21:07:02.224Z,15.20
2022-09-24T21:09:29.873Z,14.50
2022-09-24T21:11:57.350Z,14.80
2022-09-24T21:14:26.097Z,15.10
2022-09-24T21:16:55.001Z,14.30
2022-09-24T21:19:22.442Z,15.90
2022-09-24T21:21:52.144Z,14.30
2022-09-24T21:24:19.819Z,12.90
2022-09-24T21:26:47.327Z,11.80
2022-09-24T21:29:16.759Z,11.43
2022-09-24T21:31:46.141Z,12.60
2022-09-24T21:34:14.406Z,13.13
2022-09-24T21:36:44.549Z,12.73
2022-09-24T21:39:15.595Z,12.90
2022-09-24T21:41:43.580Z,13.80
2022-09-24T21:44:12.636Z,13.50
2022-09-24T21:46:42.840Z,14.27
2022-09-24T21:49:10.823Z,15.23
2022-09-24T21:51:38.529Z,16.50
2022-09-24T21:54:06.551Z,15.47
2022-09-24T21:56:36.255Z,15.73
2022-09-24T21:59:25.228Z,15.43
2022-09-24T22:01:53.272Z,15.57
2022-09-24T22:04:20.827Z,16.63
2022-09-24T22:06:48.635Z,16.03
2022-09-24T22:09:16.538Z,15.80
2022-09-24T22:11:46.087Z,14.97
2022-09-24T22:14:13.728Z,13.70
2022-09-24T22:16:41.529Z,14.70
2022-09-24T22:19:09.570Z,16.50
2022-09-24T22:21:37.245Z,15.20
2022-09-24T22:24:05.141Z,17.13
2022-09-24T22:26:32.536Z,16.90
2022-09-24T22:29:01.995Z,17.87
2022-09-24T22:31:29.492Z,17.87
2022-09-24T22:34:14.607Z,19.70
2022-09-24T22:36:42.176Z,18.70
2022-09-24T22:39:09.868Z,18.93
2022-09-24T22:41:38.676Z,17.93
2022-09-24T22:44:07.817Z,18.53
2022-09-24T22:46:36.301Z,20.10
2022-09-24T22:49:04.702Z,19.90
2022-09-24T22:51:32.539Z,21.07
2022-09-24T22:54:00.398Z,21.70
2022-09-24T22:56:28.314Z,22.37
2022-09-24T22:58:56.295Z,21.80
2022-09-24T23:01:25.834Z,22.53
2022-09-24T23:03:54.003Z,22.20
2022-09-24T23:06:21.887Z,22.00
2022-09-24T23:08:49.734Z,21.10
2022-09-24T23:11:18.505Z,22.57
2022-09-24T23:13:46.892Z,22.60
2022-09-24T23:16:15.817Z,23.03
2022-09-24T23:18:45.480Z,23.03
2022-09-24T23:21:13.673Z,21.67
2022-09-24T23:23:41.196Z,21.90
2022-09-24T23:26:16.158Z,22.57
2022-09-24T23:28:44.697Z,23.50
2022-09-24T23:31:13.249Z,23.60
2022-09-24T23:33:41.176Z,22.80
2022-09-24T23:36:10.784Z,22.90
2022-09-24T23:38:38.600Z,21.90
2022-09-24T23:41:06.549Z,22.47
2022-09-24T23:43:34.205Z,21.53
2022-09-24T23:46:02.157Z,23.37
2022-09-24T23:48:29.674Z,23.97
2022-09-24T23:50:57.093Z,23.70
2022-09-24T23:53:26.394Z,23.07
2022-09-24T23:55:54.841Z,22.70
2022-09-24T23:58:23.461Z,22.80
